createdAt,value
2019-04-20T00:02:20.654Z,3.02
2019-04-20T00:04:52.491Z,2.85
2019-04-20T00:07:30.923Z,2.70
2019-04-20T00:10:07.575Z,2.98
2019-04-20T00:12:42.338Z,2.60
2019-04-20T00:15:07.015Z,2.65
2019-04-20T00:17:50.834Z,2.08
2019-04-20T00:20:23.557Z,2.20
2019-04-20T00:23:02.098Z,1.90
2019-04-20T00:26:11.109Z,1.87
2019-04-20T00:28:58.877Z,2.42
2019-04-20T00:31:29.755Z,1.65
2019-04-20T00:34:02.766Z,2.45
2019-04-20T00:36:26.260Z,2.35
2019-04-20T00:39:02.663Z,2.27
2019-04-20T00:41:40.816Z,2.35
2019-04-20T00:44:13.262Z,2.52
2019-04-20T00:46:58.729Z,2.05
2019-04-20T00:49:36.246Z,2.08
2019-04-20T00:52:18.679Z,2.15
2019-04-20T00:54:24.304Z,2.05
2019-04-20T00:57:09.282Z,2.17
2019-04-20T00:59:51.410Z,2.05
2019-04-20T01:02:21.043Z,1.77
2019-04-20T01:04:57.825Z,2.05
2019-04-20T01:07:29.836Z,1.80
2019-04-20T01:10:06.974Z,1.52
2019-04-20T01:12:41.019Z,1.82
2019-04-20T01:15:23.654Z,2.25
2019-04-20T01:18:13.875Z,2.08
2019-04-20T01:20:51.455Z,2.05
2019-04-20T01:23:29.132Z,2.10
2019-04-20T01:26:22.515Z,2.08
2019-04-20T01:29:06.697Z,2.05
2019-04-20T01:31:36.351Z,1.80
2019-04-20T01:34:08.380Z,2.25
2019-04-20T01:36:50.424Z,2.17
2019-04-20T01:39:17.989Z,1.90
2019-04-20T01:41:43.465Z,1.90
2019-04-20T01:44:18.875Z,2.10
2019-04-20T01:46:53.275Z,1.90
2019-04-20T01:49:28.759Z,1.98
2019-04-20T01:52:07.529Z,1.90
2019-04-20T01:54:56.700Z,1.87
2019-04-20T01:58:00.605Z,1.50
2019-04-20T02:00:51.199Z,2.02
2019-04-20T02:03:52.477Z,1.82
2019-04-20T02:06:26.556Z,1.70
2019-04-20T02:09:03.170Z,1.57
2019-04-20T02:11:44.701Z,1.65
2019-04-20T02:14:24.966Z,2.10
2019-04-20T02:16:56.576Z,1.72
2019-04-20T02:19:34.623Z,1.77
2019-04-20T02:22:09.919Z,2.08
2019-04-20T02:24:29.919Z,1.85
2019-04-20T02:27:02.503Z,1.82
2019-04-20T02:29:58.214Z,1.95
2019-04-20T02:32:40.174Z,2.17
2019-04-20T02:35:34.618Z,1.85
2019-04-20T02:40:50.742Z,1.75
2019-04-20T02:43:35.846Z,1.65
2019-04-20T02:45:50.569Z,1.90
2019-04-20T02:51:09.974Z,1.80
2019-04-20T02:53:53.816Z,2.00
2019-04-20T02:56:12.312Z,2.20
2019-04-20T02:58:58.071Z,1.72
2019-04-20T03:01:43.528Z,1.67
2019-04-20T03:04:00.771Z,1.25
2019-04-20T03:06:39.850Z,1.85
2019-04-20T03:09:32.485Z,1.80
2019-04-20T03:12:23.871Z,1.57
2019-04-20T03:14:30.694Z,1.60
2019-04-20T03:17:15.316Z,2.12
2019-04-20T03:19:46.454Z,1.65
2019-04-20T03:22:35.046Z,1.70
2019-04-20T03:25:18.157Z,1.77
2019-04-20T03:27:45.981Z,1.57
2019-04-20T03:31:24.939Z,1.52
2019-04-20T03:33:51.010Z,1.90
2019-04-20T03:36:16.124Z,1.62
2019-04-20T03:38:33.046Z,1.70
2019-04-20T03:40:59.179Z,1.40
2019-04-20T03:43:22.167Z,1.50
2019-04-20T03:46:01.462Z,1.30
2019-04-20T03:48:48.348Z,1.40
2019-04-20T03:51:30.637Z,1.60
2019-04-20T03:54:21.857Z,1.27
2019-04-20T03:57:29.289Z,1.37
2019-04-20T04:00:05.133Z,1.22
2019-04-20T04:03:03.531Z,1.80
2019-04-20T04:05:27.498Z,1.40
2019-04-20T04:07:57.999Z,2.33
2019-04-20T04:10:30.497Z,1.72
2019-04-20T04:13:11.857Z,2.10
2019-04-20T04:15:52.031Z,1.80
2019-04-20T04:18:29.143Z,1.62
2019-04-20T04:21:03.001Z,1.50
2019-04-20T04:23:44.468Z,1.62
2019-04-20T04:26:24.556Z,1.70
2019-04-20T04:28:53.430Z,1.70
2019-04-20T04:31:33.373Z,1.70
2019-04-20T04:34:02.626Z,1.80
2019-04-20T04:36:36.080Z,1.62
2019-04-20T04:39:15.391Z,1.80
2019-04-20T04:41:52.294Z,2.45
2019-04-20T04:44:17.702Z,1.70
2019-04-20T04:46:42.619Z,1.42
2019-04-20T04:49:18.342Z,1.80
2019-04-20T04:51:52.017Z,1.40
2019-04-20T04:54:31.635Z,1.50
2019-04-20T04:56:50.842Z,1.47
2019-04-20T04:59:23.527Z,1.60
2019-04-20T05:01:58.391Z,1.95
2019-04-20T05:05:10.606Z,1.40
2019-04-20T05:07:43.876Z,1.42
2019-04-20T05:10:07.455Z,1.70
2019-04-20T05:12:40.929Z,1.35
2019-04-20T05:15:31.061Z,1.95
2019-04-20T05:18:42.777Z,1.60
2019-04-20T05:21:24.490Z,1.70
2019-04-20T05:24:04.504Z,1.95
2019-04-20T05:27:01.521Z,1.67
2019-04-20T05:29:17.084Z,2.02
2019-04-20T05:31:51.866Z,1.80
2019-04-20T05:34:38.765Z,1.90
2019-04-20T05:37:24.055Z,1.82
2019-04-20T05:39:45.391Z,1.90
2019-04-20T05:42:23.147Z,1.98
2019-04-20T05:44:55.959Z,1.75
2019-04-20T05:47:27.007Z,1.62
2019-04-20T05:49:57.082Z,1.80
2019-04-20T05:52:42.666Z,1.80
2019-04-20T05:55:12.567Z,1.95
2019-04-20T05:57:46.903Z,2.05
2019-04-20T06:00:19.185Z,1.90
2019-04-20T06:02:52.506Z,2.05
2019-04-20T06:05:28.826Z,1.90
2019-04-20T06:08:03.479Z,2.27
2019-04-20T06:10:38.429Z,2.45
2019-04-20T06:13:08.994Z,2.20
2019-04-20T06:15:53.958Z,2.12
2019-04-20T06:18:28.366Z,2.10
2019-04-20T06:21:13.646Z,1.85
2019-04-20T06:24:06.637Z,2.10
2019-04-20T06:29:04.249Z,2.10
2019-04-20T06:31:45.913Z,2.20
2019-04-20T06:34:33.047Z,2.15
2019-04-20T06:39:40.619Z,1.67
2019-04-20T06:42:15.238Z,1.67
2019-04-20T06:44:41.184Z,1.80
2019-04-20T06:47:22.795Z,2.12
2019-04-20T06:49:53.604Z,1.70
2019-04-20T06:52:45.408Z,1.90
2019-04-20T06:55:15.728Z,2.17
2019-04-20T06:57:45.047Z,1.40
2019-04-20T07:00:35.106Z,1.80
2019-04-20T07:02:53.903Z,1.92
2019-04-20T07:05:48.982Z,1.90
2019-04-20T07:08:15.592Z,1.72
2019-04-20T07:10:40.734Z,2.17
2019-04-20T07:13:06.217Z,2.12
2019-04-20T07:15:54.484Z,2.45
2019-04-20T07:18:35.262Z,1.95
2019-04-20T07:21:16.090Z,2.30
2019-04-20T07:23:59.070Z,1.82
2019-04-20T07:26:29.213Z,1.95
2019-04-20T07:29:00.718Z,2.10
2019-04-20T07:31:32.056Z,2.55
2019-04-20T07:34:10.483Z,2.40
2019-04-20T07:36:45.816Z,2.33
2019-04-20T07:39:21.601Z,2.35
2019-04-20T07:41:54.598Z,2.15
2019-04-20T07:44:36.358Z,2.83
2019-04-20T07:47:07.671Z,15.10
2019-04-20T07:49:35.754Z,15.00
2019-04-20T07:51:50.625Z,4.22
2019-04-20T07:54:46.934Z,4.10
2019-04-20T07:57:14.338Z,2.77
2019-04-20T07:59:50.908Z,2.62
2019-04-20T08:02:57.397Z,2.40
2019-04-20T08:05:39.180Z,2.52
2019-04-20T08:08:18.039Z,1.80
2019-04-20T08:10:54.404Z,1.82
2019-04-20T08:16:06.719Z,2.00
2019-04-20T08:18:41.607Z,1.80
2019-04-20T08:21:12.973Z,1.80
2019-04-20T08:23:58.169Z,1.70
2019-04-20T08:26:11.293Z,1.95
2019-04-20T08:28:48.604Z,1.60
2019-04-20T08:31:35.903Z,1.62
2019-04-20T08:34:27.649Z,1.85
2019-04-20T08:36:57.359Z,2.05
2019-04-20T08:39:48.163Z,1.90
2019-04-20T08:42:08.807Z,1.95
2019-04-20T08:47:30.572Z,1.72
2019-04-20T08:50:19.834Z,1.70
2019-04-20T08:53:08.918Z,1.80
2019-04-20T08:55:23.487Z,1.67
2019-04-20T08:57:39.966Z,2.37
2019-04-20T09:00:13.257Z,1.55
2019-04-20T09:02:55.600Z,2.00
2019-04-20T09:05:36.893Z,1.77
2019-04-20T09:08:09.289Z,2.15
2019-04-20T09:10:49.537Z,2.15
2019-04-20T09:13:19.757Z,1.72
2019-04-20T09:15:42.545Z,2.12
2019-04-20T09:18:27.176Z,1.80
2019-04-20T09:21:01.138Z,1.95
2019-04-20T09:23:45.678Z,2.10
2019-04-20T09:26:29.733Z,1.77
2019-04-20T09:29:01.677Z,2.02
2019-04-20T09:31:43.739Z,1.82
2019-04-20T09:34:34.030Z,2.30
2019-04-20T09:37:36.931Z,1.87
2019-04-20T09:40:28.143Z,2.00
2019-04-20T09:42:54.016Z,1.62
2019-04-20T09:45:47.607Z,2.40
2019-04-20T09:48:25.244Z,1.90
2019-04-20T09:51:12.782Z,1.95
2019-04-20T09:53:39.050Z,2.20
2019-04-20T09:56:18.139Z,2.25
2019-04-20T09:58:55.243Z,2.10
2019-04-20T10:01:19.035Z,1.80
2019-04-20T10:03:44.980Z,2.00
2019-04-20T10:06:23.077Z,2.15
2019-04-20T10:08:56.036Z,2.00
2019-04-20T10:11:25.568Z,2.37
2019-04-20T10:13:58.522Z,1.95
2019-04-20T10:16:31.507Z,2.12
2019-04-20T10:19:04.914Z,2.10
2019-04-20T10:21:38.273Z,1.70
2019-04-20T10:24:10.627Z,2.12
2019-04-20T10:26:42.848Z,3.02
2019-04-20T10:29:15.454Z,3.50
2019-04-20T10:31:54.669Z,2.08
2019-04-20T10:34:24.010Z,2.10
2019-04-20T10:37:15.929Z,2.05
2019-04-20T10:39:48.749Z,2.40
2019-04-20T10:42:21.155Z,2.45
2019-04-20T10:44:56.707Z,2.33
2019-04-20T10:47:27.389Z,2.60
2019-04-20T10:49:59.349Z,2.58
2019-04-20T10:52:32.009Z,2.12
2019-04-20T10:55:08.274Z,2.87
2019-04-20T10:57:41.756Z,1.90
2019-04-20T11:00:17.521Z,2.50
2019-04-20T11:02:51.258Z,1.85
2019-04-20T11:05:24.473Z,2.42
2019-04-20T11:07:59.914Z,1.90
2019-04-20T11:10:49.385Z,2.02
2019-04-20T11:13:09.523Z,2.08
2019-04-20T11:15:42.223Z,2.35
2019-04-20T11:18:15.491Z,1.90
2019-04-20T11:20:49.113Z,1.82
2019-04-20T11:23:24.339Z,2.10
2019-04-20T11:25:58.309Z,2.20
2019-04-20T11:28:30.411Z,2.12
2019-04-20T11:31:03.966Z,2.17
2019-04-20T11:33:40.403Z,1.77
2019-04-20T11:36:13.005Z,2.40
2019-04-20T11:38:45.100Z,1.90
2019-04-20T11:41:23.781Z,2.02
2019-04-20T11:43:53.782Z,2.25
2019-04-20T11:46:26.945Z,2.00
2019-04-20T11:49:01.337Z,2.42
2019-04-20T11:51:37.314Z,2.27
2019-04-20T11:54:10.446Z,2.25
2019-04-20T11:56:46.392Z,2.10
2019-04-20T11:59:16.949Z,2.20
2019-04-20T12:02:00.953Z,1.98
2019-04-20T12:04:45.478Z,2.10
2019-04-20T12:07:11.118Z,2.12
2019-04-20T12:09:43.788Z,2.15
2019-04-20T12:12:27.261Z,1.80
2019-04-20T12:14:50.544Z,1.62
2019-04-20T12:17:23.762Z,2.05
2019-04-20T12:19:55.880Z,1.87
2019-04-20T12:22:28.307Z,2.62
2019-04-20T12:25:02.548Z,2.10
2019-04-20T12:27:36.655Z,2.35
2019-04-20T12:30:09.970Z,2.10
2019-04-20T12:32:47.787Z,3.35
2019-04-20T12:35:18.153Z,2.58
2019-04-20T12:37:52.401Z,1.80
2019-04-20T12:40:25.823Z,2.98
2019-04-20T12:43:02.069Z,2.52
2019-04-20T12:45:35.666Z,2.27
2019-04-20T12:48:08.089Z,1.82
2019-04-20T12:50:41.527Z,2.27
2019-04-20T12:53:14.810Z,2.08
2019-04-20T12:55:50.584Z,1.87
2019-04-20T12:58:23.001Z,1.65
2019-04-20T13:00:56.335Z,2.33
2019-04-20T13:03:29.767Z,2.70
2019-04-20T13:06:03.808Z,3.30
2019-04-20T13:08:42.206Z,2.83
2019-04-20T13:11:22.810Z,2.50
2019-04-20T13:14:38.577Z,2.02
2019-04-20T13:17:14.886Z,2.00
2019-04-20T13:19:47.137Z,2.00
2019-04-20T13:22:19.553Z,2.10
2019-04-20T13:24:52.713Z,2.25
2019-04-20T13:27:27.048Z,2.05
2019-04-20T13:30:00.745Z,2.33
2019-04-20T13:32:36.478Z,2.15
2019-04-20T13:35:10.059Z,1.77
2019-04-20T13:37:44.020Z,2.12
2019-04-20T13:40:17.743Z,1.90
2019-04-20T13:42:49.924Z,1.80
2019-04-20T13:45:22.302Z,2.33
2019-04-20T13:47:55.108Z,1.75
2019-04-20T13:50:29.853Z,2.37
2019-04-20T13:53:03.255Z,2.67
2019-04-20T13:55:36.001Z,2.30
2019-04-20T13:58:13.887Z,2.22
2019-04-20T14:01:03.051Z,2.08
2019-04-20T14:03:36.573Z,2.02
2019-04-20T14:06:10.952Z,1.80
2019-04-20T14:08:45.304Z,2.40
2019-04-20T14:11:17.797Z,1.90
2019-04-20T14:13:55.364Z,2.00
2019-04-20T14:16:25.030Z,2.02
2019-04-20T14:18:58.702Z,2.27
2019-04-20T14:21:38.414Z,2.58
2019-04-20T14:24:10.958Z,2.70
2019-04-20T14:26:44.568Z,2.20
2019-04-20T14:29:17.169Z,2.00
2019-04-20T14:31:50.033Z,2.33
2019-04-20T14:34:24.737Z,2.35
2019-04-20T14:36:57.098Z,2.50
2019-04-20T14:39:30.267Z,2.17
2019-04-20T14:42:04.472Z,2.47
2019-04-20T14:44:37.491Z,1.87
2019-04-20T14:47:09.867Z,2.62
2019-04-20T14:49:42.998Z,2.02
2019-04-20T14:52:15.927Z,2.00
2019-04-20T14:54:47.930Z,1.82
2019-04-20T14:57:23.412Z,2.58
2019-04-20T15:00:01.268Z,2.20
2019-04-20T15:02:36.193Z,1.70
2019-04-20T15:05:09.028Z,1.50
2019-04-20T15:07:41.052Z,2.12
2019-04-20T15:10:13.154Z,2.02
2019-04-20T15:12:52.549Z,2.35
2019-04-20T15:15:20.702Z,2.40
2019-04-20T15:18:05.833Z,2.33
2019-04-20T15:20:41.646Z,2.00
2019-04-20T15:23:25.734Z,1.75
2019-04-20T15:26:00.735Z,2.40
2019-04-20T15:28:32.730Z,2.27
2019-04-20T15:31:06.010Z,2.08
2019-04-20T15:33:39.106Z,2.05
2019-04-20T15:36:11.474Z,1.82
2019-04-20T15:38:43.514Z,2.47
2019-04-20T15:41:16.861Z,2.25
2019-04-20T15:43:49.394Z,2.05
2019-04-20T15:46:21.806Z,2.15
2019-04-20T15:48:53.883Z,1.80
2019-04-20T15:51:25.910Z,2.05
2019-04-20T15:53:58.053Z,2.27
2019-04-20T15:56:30.219Z,2.30
2019-04-20T15:59:04.264Z,1.70
2019-04-20T16:01:45.077Z,2.12
2019-04-20T16:04:39.041Z,2.00
2019-04-20T16:07:10.893Z,2.10
2019-04-20T16:09:44.332Z,1.92
2019-04-20T16:12:17.261Z,1.87
2019-04-20T16:14:51.735Z,1.82
2019-04-20T16:17:32.776Z,2.17
2019-04-20T16:20:06.198Z,2.33
2019-04-20T16:22:36.726Z,2.10
2019-04-20T16:25:23.489Z,2.25
2019-04-20T16:27:56.125Z,2.37
2019-04-20T16:30:31.711Z,2.15
2019-04-20T16:33:04.392Z,2.22
2019-04-20T16:35:36.438Z,2.12
2019-04-20T16:38:10.718Z,1.82
2019-04-20T16:40:44.357Z,2.10
2019-04-20T16:43:24.439Z,1.90
2019-04-20T16:45:50.990Z,2.85
2019-04-20T16:48:26.233Z,2.00
2019-04-20T16:50:58.715Z,2.33
2019-04-20T16:53:32.938Z,2.40
2019-04-20T16:56:06.606Z,1.98
2019-04-20T16:58:39.976Z,1.95
2019-04-20T17:01:12.060Z,2.58
2019-04-20T17:03:57.842Z,2.72
2019-04-20T17:06:20.589Z,2.62
2019-04-20T17:08:52.928Z,2.67
2019-04-20T17:11:27.615Z,2.50
2019-04-20T17:14:01.690Z,2.70
2019-04-20T17:16:35.621Z,2.70
2019-04-20T17:19:09.991Z,2.75
2019-04-20T17:21:42.456Z,4.70
2019-04-20T17:24:17.464Z,2.35
2019-04-20T17:27:05.301Z,2.92
2019-04-20T17:29:48.597Z,2.72
2019-04-20T17:32:23.533Z,2.83
2019-04-20T17:35:09.113Z,3.25
2019-04-20T17:37:33.723Z,5.30
2019-04-20T17:40:27.025Z,5.50
2019-04-20T17:42:50.872Z,3.20
2019-04-20T17:45:24.805Z,2.70
2019-04-20T17:48:03.245Z,3.33
2019-04-20T17:53:59.905Z,2.45
2019-04-20T17:56:30.695Z,2.45
2019-04-20T17:59:04.527Z,4.00
2019-04-20T18:02:09.066Z,3.40
2019-04-20T18:04:56.944Z,3.27
2019-04-20T18:07:28.421Z,3.62
2019-04-20T18:09:58.899Z,3.47
2019-04-20T18:12:23.156Z,3.30
2019-04-20T18:15:08.089Z,3.37
2019-04-20T18:17:54.690Z,3.77
2019-04-20T18:20:32.625Z,3.50
2019-04-20T18:23:06.573Z,3.67
2019-04-20T18:26:04.768Z,3.33
2019-04-20T18:28:26.443Z,2.92
2019-04-20T18:31:09.111Z,3.50
2019-04-20T18:33:44.472Z,4.12
2019-04-20T18:36:23.367Z,3.92
2019-04-20T18:38:57.393Z,3.50
2019-04-20T18:41:34.927Z,3.80
2019-04-20T18:44:02.641Z,4.62
2019-04-20T18:47:00.431Z,4.10
2019-04-20T18:49:23.740Z,4.17
2019-04-20T18:51:43.845Z,3.90
2019-04-20T18:54:21.344Z,3.87
2019-04-20T18:56:52.541Z,4.08
2019-04-20T18:59:35.182Z,3.85
2019-04-20T19:15:58.700Z,6.50
2019-04-20T19:32:05.769Z,6.22
2019-04-20T19:34:39.237Z,5.95
2019-04-20T19:37:03.864Z,5.60
2019-04-20T19:39:47.434Z,5.35
2019-04-20T19:42:18.124Z,6.28
2019-04-20T19:44:53.257Z,5.55
2019-04-20T19:47:32.370Z,5.35
2019-04-20T19:50:10.966Z,5.37
2019-04-20T19:52:44.820Z,5.97
2019-04-20T19:55:10.511Z,6.53
2019-04-20T19:57:45.511Z,6.85
2019-04-20T20:00:06.373Z,7.00
2019-04-20T20:02:41.469Z,7.92
2019-04-20T20:05:17.572Z,8.08
2019-04-20T20:07:52.735Z,7.85
2019-04-20T20:10:30.218Z,8.43
2019-04-20T20:13:00.664Z,9.33
2019-04-20T20:15:34.319Z,10.58
2019-04-20T20:18:27.421Z,10.25
2019-04-20T20:20:55.440Z,7.47
2019-04-20T20:23:14.447Z,7.97
2019-04-20T20:25:49.644Z,9.45
2019-04-20T20:28:30.504Z,10.48
2019-04-20T20:31:05.997Z,6.90
2019-04-20T20:33:43.843Z,6.70
2019-04-20T20:36:11.823Z,6.95
2019-04-20T20:38:43.705Z,6.70
2019-04-20T20:41:21.809Z,6.58
2019-04-20T20:43:57.668Z,6.75
2019-04-20T20:46:30.643Z,6.50
2019-04-20T20:49:09.422Z,6.17
2019-04-20T20:51:49.845Z,6.45
2019-04-20T20:54:11.337Z,6.55
2019-04-20T20:56:48.680Z,6.67
2019-04-20T20:59:25.745Z,5.65
2019-04-20T21:01:52.396Z,6.20
2019-04-20T21:04:21.672Z,6.30
2019-04-20T21:06:55.890Z,6.03
2019-04-20T21:09:31.228Z,7.22
2019-04-20T21:12:09.144Z,7.25
2019-04-20T21:14:40.562Z,7.78
2019-04-20T21:17:17.923Z,7.37
2019-04-20T21:20:03.503Z,8.45
2019-04-20T21:22:43.548Z,8.95
2019-04-20T21:24:56.872Z,7.20
2019-04-20T21:27:29.785Z,7.62
2019-04-20T21:30:03.997Z,8.53
2019-04-20T21:32:44.171Z,8.10
2019-04-20T21:35:15.613Z,8.18
2019-04-20T21:37:51.234Z,7.55
2019-04-20T21:40:31.542Z,8.38
2019-04-20T21:43:05.076Z,7.75
2019-04-20T21:45:37.215Z,7.83
2019-04-20T21:48:12.788Z,8.83
2019-04-20T21:50:59.801Z,9.15
2019-04-20T21:53:20.363Z,9.00
2019-04-20T21:55:50.141Z,8.70
2019-04-20T21:58:27.745Z,9.30
2019-04-20T22:01:09.551Z,7.92
2019-04-20T22:03:34.218Z,8.03
2019-04-20T22:06:08.992Z,8.40
2019-04-20T22:08:47.987Z,8.43
2019-04-20T22:11:15.808Z,8.70
2019-04-20T22:13:53.376Z,8.60
2019-04-20T22:16:41.704Z,7.42
2019-04-20T22:19:25.031Z,8.05
2019-04-20T22:21:59.427Z,7.45
2019-04-20T22:24:39.902Z,7.45
2019-04-20T22:27:05.013Z,7.17
2019-04-20T22:29:28.076Z,7.12
2019-04-20T22:32:06.267Z,6.78
2019-04-20T22:35:12.599Z,7.45
2019-04-20T22:38:07.024Z,7.95
2019-04-20T22:40:36.704Z,8.20
2019-04-20T22:43:10.367Z,7.75
2019-04-20T22:45:47.364Z,7.40
2019-04-20T22:48:19.287Z,7.50
2019-04-20T22:51:12.326Z,8.88
2019-04-20T22:53:36.496Z,7.90
2019-04-20T22:56:21.141Z,7.83
2019-04-20T22:58:43.267Z,7.25
2019-04-20T23:01:19.342Z,7.25
2019-04-20T23:03:41.119Z,7.53
2019-04-20T23:06:20.782Z,7.03
2019-04-20T23:08:59.521Z,7.85
2019-04-20T23:11:31.495Z,9.83
2019-04-20T23:14:02.372Z,9.63
2019-04-20T23:16:43.196Z,8.83
2019-04-20T23:19:10.407Z,9.15
2019-04-20T23:21:49.609Z,8.65
2019-04-20T23:24:19.863Z,7.80
2019-04-20T23:26:53.166Z,8.60
2019-04-20T23:29:29.578Z,8.28
2019-04-20T23:32:04.450Z,9.13
2019-04-20T23:34:34.598Z,8.73
2019-04-20T23:37:24.580Z,8.93
2019-04-20T23:39:52.407Z,8.63
2019-04-20T23:42:33.670Z,8.68
2019-04-20T23:45:45.622Z,8.85
2019-04-20T23:48:33.702Z,7.72
2019-04-20T23:51:29.994Z,7.60
2019-04-20T23:53:51.168Z,7.78
2019-04-20T23:56:18.410Z,7.10
2019-04-20T23:58:51.832Z,6.80
